Swedesboro, New Jersey
Current Conditions -  °F | °C
As of 4:54 PM on Monday 24 Nov 2014 (Local Time) from KPHL Reporting Station
Few Clouds Few Clouds  
Wind Chill: 68°   Ceiling: Unl
Heat Index: 68°   Visibility: 10mi
Dew Point: 55°   Wind: 16mph
Humidity: 63%   Direction: 210°SSW
Pressure: 29.67"   Gusts: NA
Location:  39.75°N, 75.31°W
Report Text: KPHL 242154Z 21014KT 10SM FEW035 FEW100 20/13 A2967 RMK AO2 PK WND 19026/2134 SLP045 T02000128
Loading
Personal Weather Stations






























Interactive Weather Map New forecast layout! Learn more

10-Day Weather Forecast

Advertisements
Track Severe Weather on mobile